Time;durP1;ratioP1;P1;durP2;ratioP2;P2;SDS_P1;SDS_P2;PMS_P1;PMS_P2;Temp;Humidity;BMP_temperature;BMP_pressure;BME280_temperature;BME280_humidity;BME280_pressure;Samples;Min_cycle;Max_cycle;Signal;HPM_P1;HPM_P2
2022/04/08 00:00:06;;;;;;;8.03;2.47;;;;;;;5.04;100.00;148719.00;5023957;28;20434;-72
2022/04/08 00:02:31;;;;;;;4.10;1.47;;;;;;;5.06;100.00;148724.16;5028719;28;20029;-71
2022/04/08 00:04:57;;;;;;;6.43;1.53;;;;;;;5.06;100.00;148724.16;5024436;28;20476;-71
2022/04/08 00:07:23;;;;;;;6.60;1.60;;;;;;;5.06;100.00;148725.44;5023478;28;20383;-70
2022/04/08 00:09:48;;;;;;;4.47;1.17;;;;;;;5.12;100.00;148739.66;5024633;28;20029;-70
2022/04/08 00:12:13;;;;;;;6.43;1.57;;;;;;;5.12;100.00;148739.66;5024682;28;20037;-70
2022/04/08 00:14:39;;;;;;;6.07;1.50;;;;;;;5.06;100.00;148724.16;5023588;28;20030;-70
2022/04/08 00:17:04;;;;;;;4.17;1.37;;;;;;;5.02;100.00;148715.16;5023404;28;20247;-70
2022/04/08 00:19:31;;;;;;;9.53;1.87;;;;;;;5.07;100.00;148726.72;5024337;28;20503;-69
2022/04/08 00:21:56;;;;;;;10.53;3.30;;;;;;;5.01;100.00;148712.56;5019672;28;20049;-70
2022/04/08 00:24:22;;;;;;;7.57;1.40;;;;;;;5.02;100.00;148713.88;5024969;28;20017;-69
2022/04/08 00:26:47;;;;;;;3.60;1.47;;;;;;;5.06;100.00;148724.16;5028758;28;20029;-70
2022/04/08 00:29:16;;;;;;;14.93;2.63;;;;;;;4.98;100.00;148704.84;5028803;28;20368;-69
2022/04/08 00:31:41;;;;;;;8.33;2.00;;;;;;;4.89;100.00;148681.66;5027964;28;20033;-69
2022/04/08 00:34:06;;;;;;;10.00;1.90;;;;;;;4.96;100.00;148700.94;5024757;28;20030;-70
2022/04/08 00:36:32;;;;;;;8.13;1.83;;;;;;;4.97;100.00;148702.28;5011133;28;20489;-70
2022/04/08 00:38:57;;;;;;;7.13;1.70;;;;;;;5.01;100.00;148712.56;5010407;28;20032;-70
2022/04/08 00:41:23;;;;;;;9.97;2.07;;;;;;;5.02;100.00;148715.16;5028639;28;20397;-70
2022/04/08 00:43:48;;;;;;;13.53;1.70;;;;;;;4.97;100.00;148703.56;5023753;28;20157;-70
2022/04/08 00:46:14;;;;;;;10.63;1.77;;;;;;;4.99;100.00;148707.44;5024278;28;20044;-69
2022/04/08 00:48:39;;;;;;;13.03;2.27;;;;;;;5.04;100.00;148720.31;5017935;28;20493;-69
2022/04/08 00:51:06;;;;;;;6.40;1.70;;;;;;;5.05;100.00;148722.88;5023758;28;20040;-69
2022/04/08 00:53:34;;;;;;;7.83;1.73;;;;;;;5.06;100.00;148724.16;5027194;28;20116;-69
2022/04/08 00:56:01;;;;;;;6.60;2.03;;;;;;;5.00;100.00;148711.28;5024095;28;20626;-69
2022/04/08 00:58:28;;;;;;;9.97;2.10;;;;;;;4.94;100.00;148695.81;5022894;28;20021;-69
2022/04/08 01:00:54;;;;;;;4.53;1.50;;;;;;;4.97;100.00;148702.28;5027111;28;20389;-69
2022/04/08 01:03:19;;;;;;;7.07;1.60;;;;;;;4.92;100.00;148689.38;5026040;28;20038;-70
2022/04/08 01:05:45;;;;;;;6.80;1.63;;;;;;;4.87;100.00;148676.50;5028476;28;20033;-70
2022/04/08 01:08:12;;;;;;;5.73;1.50;;;;;;;4.81;100.00;148661.00;5018341;28;20040;-71
2022/04/08 01:10:40;;;;;;;9.23;1.40;;;;;;;4.50;100.00;148582.44;5024227;28;20037;-71
2022/04/08 01:13:05;;;;;;;4.93;1.10;;;;;;;4.35;100.00;148545.03;5028330;28;20083;-72
2022/04/08 01:15:31;;;;;;;5.77;1.30;;;;;;;4.23;100.00;148514.13;5022371;28;20029;-73
2022/04/08 01:17:56;;;;;;;4.47;1.00;;;;;;;4.16;100.00;148496.13;5021901;28;20107;-72
2022/04/08 01:20:22;;;;;;;6.03;1.30;;;;;;;4.16;100.00;148496.13;5024396;28;20140;-73
2022/04/08 01:22:47;;;;;;;5.30;2.03;;;;;;;4.13;100.00;148489.69;5024301;28;20036;-72
2022/04/08 01:25:13;;;;;;;9.47;1.47;;;;;;;4.09;100.00;148480.66;5019340;28;20084;-72
2022/04/08 01:27:39;;;;;;;10.00;1.83;;;;;;;4.14;100.00;148490.97;5021001;28;20564;-73
2022/04/08 01:30:09;;;;;;;6.77;1.67;;;;;;;4.22;100.00;148511.56;5023552;28;20033;-72
2022/04/08 01:32:35;;;;;;;8.10;1.80;;;;;;;4.33;100.00;148541.19;5005528;28;20108;-71
2022/04/08 01:35:02;;;;;;;12.57;2.27;;;;;;;4.26;100.00;148521.88;5022567;28;20495;-71
2022/04/08 01:37:27;;;;;;;10.37;1.97;;;;;;;4.31;100.00;148534.75;5021929;28;20043;-70
2022/04/08 01:39:53;;;;;;;9.17;2.10;;;;;;;4.45;100.00;148569.53;5022664;28;20025;-70
2022/04/08 01:42:22;;;;;;;14.70;2.50;;;;;;;4.49;100.00;148581.16;5023595;28;20507;-70
2022/04/08 01:44:48;;;;;;;8.83;2.00;;;;;;;4.54;100.00;148594.00;5022445;28;20053;-70
2022/04/08 01:47:13;;;;;;;7.73;1.30;;;;;;;4.58;100.00;148603.00;5024179;28;20033;-70
2022/04/08 01:49:39;;;;;;;13.23;2.73;;;;;;;4.60;100.00;148609.50;5023851;28;20064;-70
2022/04/08 01:52:05;;;;;;;7.23;1.90;;;;;;;4.57;100.00;148600.44;5021781;28;20025;-70
2022/04/08 01:54:30;;;;;;;5.80;1.40;;;;;;;4.56;100.00;148599.16;5022437;28;20384;-70
2022/04/08 01:56:56;;;;;;;5.07;1.30;;;;;;;4.54;100.00;148594.00;5028338;28;20033;-70
2022/04/08 01:59:21;;;;;;;4.73;1.10;;;;;;;4.57;100.00;148601.72;5026996;28;20061;-69
2022/04/08 02:01:46;;;;;;;6.73;1.70;;;;;;;4.57;100.00;148601.72;5024535;28;20028;-70
2022/04/08 02:04:11;;;;;;;9.30;1.37;;;;;;;4.62;100.00;148614.66;5021877;28;20052;-70
2022/04/08 02:06:40;;;;;;;4.40;1.10;;;;;;;4.54;100.00;148594.00;5028587;28;20040;-71
2022/04/08 02:09:07;;;;;;;7.83;1.80;;;;;;;4.47;100.00;148575.97;5024305;28;20103;-72
2022/04/08 02:11:33;;;;;;;6.93;2.20;;;;;;;4.45;100.00;148569.53;5028031;28;20025;-71
2022/04/08 02:13:58;;;;;;;9.73;1.93;;;;;;;4.40;100.00;148557.94;5019994;28;20116;-72
2022/04/08 02:16:24;;;;;;;10.67;2.50;;;;;;;4.37;100.00;148550.22;5028944;28;20113;-72
2022/04/08 02:18:50;;;;;;;11.33;2.30;;;;;;;4.35;100.00;148546.31;5008824;28;20033;-72
2022/04/08 02:21:19;;;;;;;15.77;2.90;;;;;;;4.43;100.00;148564.38;5024786;28;20100;-71
2022/04/08 02:23:48;;;;;;;5.53;2.00;;;;;;;4.38;100.00;148552.81;5030139;28;20438;-71
2022/04/08 02:26:16;;;;;;;7.30;1.63;;;;;;;4.31;100.00;148534.75;5027699;28;20029;-71
2022/04/08 02:28:41;;;;;;;3.47;1.07;;;;;;;4.27;100.00;148524.47;5021877;28;20038;-71
2022/04/08 02:31:07;;;;;;;2.67;0.90;;;;;;;4.30;100.00;148532.19;5023269;28;20033;-70
2022/04/08 02:33:32;;;;;;;5.17;1.37;;;;;;;4.21;100.00;148508.97;5025027;28;20029;-71
2022/04/08 02:35:57;;;;;;;4.20;1.33;;;;;;;4.15;100.00;148493.56;5028172;28;20044;-71
2022/04/08 02:38:23;;;;;;;5.67;1.60;;;;;;;4.14;100.00;148490.97;5017844;28;20490;-72
2022/04/08 02:40:48;;;;;;;5.10;1.60;;;;;;;4.08;100.00;148476.78;5031827;28;20067;-71
2022/04/08 02:43:14;;;;;;;7.90;1.80;;;;;;;4.05;100.00;148470.34;5030065;28;20033;-73
2022/04/08 02:45:39;;;;;;;10.33;1.60;;;;;;;3.99;100.00;148454.88;5028158;28;20436;-72
2022/04/08 02:48:05;;;;;;;3.83;1.40;;;;;;;3.81;100.00;148409.84;5027954;28;20025;-72
2022/04/08 02:50:30;;;;;;;2.20;0.93;;;;;;;3.52;100.00;148336.47;5026278;28;20116;-70
2022/04/08 02:52:56;;;;;;;3.83;0.90;;;;;;;3.38;100.00;148300.41;5027172;28;20481;-71
2022/04/08 02:55:21;;;;;;;5.30;1.77;;;;;;;3.29;100.00;148277.28;5030027;28;20428;-70
2022/04/08 02:57:47;;;;;;;6.53;1.07;;;;;;;3.25;100.00;148266.94;5025798;28;20049;-70
2022/04/08 03:00:18;;;;;;;8.53;1.13;;;;;;;3.16;100.00;148243.81;5022919;28;20083;-70
2022/04/08 03:02:44;;;;;;;6.60;1.00;;;;;;;3.13;100.00;148236.06;5028423;28;20039;-69
2022/04/08 03:05:10;;;;;;;6.07;0.90;;;;;;;3.06;100.00;148218.06;5029193;28;20384;-70
2022/04/08 03:07:36;;;;;;;5.63;1.20;;;;;;;3.07;100.00;148220.63;5021974;28;20028;-70
2022/04/08 03:10:04;;;;;;;7.50;1.37;;;;;;;3.07;100.00;148220.63;5016296;28;20026;-70
2022/04/08 03:12:30;;;;;;;5.87;1.00;;;;;;;3.06;100.00;148218.06;5023716;28;20025;-70
2022/04/08 03:14:55;;;;;;;3.67;1.13;;;;;;;2.99;100.00;148200.03;5028144;28;20037;-70
2022/04/08 03:17:20;;;;;;;5.03;1.20;;;;;;;3.01;100.00;148205.19;5029170;28;20409;-70
2022/04/08 03:19:46;;;;;;;5.00;0.90;;;;;;;3.14;100.00;148239.91;5026248;28;20056;-69
2022/04/08 03:22:11;;;;;;;6.23;1.03;;;;;;;3.07;100.00;148221.94;5006971;28;20120;-70
2022/04/08 03:24:36;;;;;;;6.13;1.37;;;;;;;3.12;100.00;148233.47;5002516;28;20029;-69
2022/04/08 03:27:02;;;;;;;5.87;1.10;;;;;;;3.11;100.00;148230.91;5030817;28;20021;-69
2022/04/08 03:29:27;;;;;;;3.80;1.33;;;;;;;3.13;100.00;148236.06;5023967;28;20030;-69
2022/04/08 03:31:53;;;;;;;4.40;1.00;;;;;;;3.16;100.00;148243.81;5027593;28;20061;-69
2022/04/08 03:34:18;;;;;;;5.97;1.10;;;;;;;3.15;100.00;148241.19;5021718;28;20029;-69
2022/04/08 03:36:45;;;;;;;4.20;0.93;;;;;;;3.09;100.00;148225.78;5025347;28;20044;-69
2022/04/08 03:39:13;;;;;;;3.83;0.93;;;;;;;3.08;100.00;148223.22;5023865;28;20026;-69
2022/04/08 03:41:39;;;;;;;5.60;1.00;;;;;;;3.07;100.00;148221.94;5024604;28;20491;-69
2022/04/08 03:44:04;;;;;;;4.70;1.20;;;;;;;3.04;100.00;148212.94;5027549;28;20112;-69
2022/04/08 03:46:30;;;;;;;5.40;1.37;;;;;;;2.97;100.00;148194.91;5010379;28;20493;-69
2022/04/08 03:48:55;;;;;;;6.53;1.20;;;;;;;2.96;100.00;148192.34;5029299;28;20385;-69
2022/04/08 03:51:20;;;;;;;7.00;1.50;;;;;;;2.89;100.00;148176.88;5029303;28;20159;-69
2022/04/08 03:53:46;;;;;;;3.27;1.03;;;;;;;2.91;100.00;148180.78;5030710;28;20071;-69
2022/04/08 03:56:11;;;;;;;3.70;1.00;;;;;;;2.85;100.00;148166.59;5026676;28;20026;-69
2022/04/08 03:58:36;;;;;;;10.77;1.60;;;;;;;2.74;100.00;148138.28;5024957;28;20037;-69
2022/04/08 04:01:02;;;;;;;5.27;1.77;;;;;;;2.69;100.00;148125.44;5028958;28;20036;-69
2022/04/08 04:03:27;;;;;;;6.33;1.60;;;;;;;2.60;100.00;148103.56;5029311;28;20037;-69
2022/04/08 04:05:53;;;;;;;6.23;1.40;;;;;;;2.66;100.00;148117.69;5027039;28;20446;-69
2022/04/08 04:08:18;;;;;;;8.93;1.53;;;;;;;2.71;100.00;148130.59;5001241;28;20026;-69
2022/04/08 04:10:50;;;;;;;7.30;1.30;;;;;;;2.85;100.00;148166.59;5014828;28;20496;-69
2022/04/08 04:13:16;;;;;;;4.47;1.53;;;;;;;2.88;100.00;148174.31;5021371;28;20428;-69
2022/04/08 04:15:41;;;;;;;3.87;1.30;;;;;;;2.86;100.00;148169.16;5017304;28;20037;-69
2022/04/08 04:18:08;;;;;;;5.73;1.40;;;;;;;2.93;100.00;148185.91;5023165;28;20465;-69
2022/04/08 04:20:34;;;;;;;5.73;1.33;;;;;;;3.04;100.00;148214.22;5024564;28;20232;-69
2022/04/08 04:22:59;;;;;;;6.80;1.50;;;;;;;3.18;100.00;148248.94;5024176;28;21329;-69
2022/04/08 04:25:25;;;;;;;8.27;1.20;;;;;;;3.25;100.00;148266.94;5007185;28;20025;-68
2022/04/08 04:27:51;;;;;;;9.87;1.30;;;;;;;3.24;100.00;148265.66;5027434;28;20041;-68
2022/04/08 04:30:16;;;;;;;8.27;1.60;;;;;;;3.29;100.00;148277.28;5021687;28;20055;-68
2022/04/08 04:32:42;;;;;;;1.83;0.80;;;;;;;3.31;100.00;148282.41;5022364;28;20541;-68
2022/04/08 04:35:08;;;;;;;3.63;1.10;;;;;;;3.33;100.00;148287.53;5019153;28;20496;-68
2022/04/08 04:37:37;;;;;;;2.30;0.90;;;;;;;3.32;100.00;148284.97;5022702;28;20485;-68
2022/04/08 04:40:04;;;;;;;2.90;0.90;;;;;;;3.25;100.00;148266.94;5024471;28;20071;-68
2022/04/08 04:42:29;;;;;;;3.07;1.30;;;;;;;3.14;100.00;148239.91;5026150;28;20091;-68
2022/04/08 04:44:56;;;;;;;3.67;0.90;;;;;;;3.03;100.00;148210.31;5024381;28;20029;-68
2022/04/08 04:47:23;;;;;;;1.70;0.70;;;;;;;2.89;100.00;148175.59;5027214;28;20076;-68
2022/04/08 04:49:48;;;;;;;3.10;0.90;;;;;;;2.78;100.00;148148.56;5020871;28;20535;-68
2022/04/08 04:52:14;;;;;;;2.77;1.10;;;;;;;2.68;100.00;148122.88;5029938;28;20049;-68
2022/04/08 04:54:41;;;;;;;3.53;1.10;;;;;;;2.52;100.00;148081.69;5027204;28;20033;-68
2022/04/08 04:57:06;;;;;;;4.17;1.10;;;;;;;2.46;100.00;148066.28;5016474;28;20107;-68
2022/04/08 04:59:32;;;;;;;6.60;1.63;;;;;;;2.49;100.00;148074.00;5021698;28;20037;-68
2022/04/08 05:01:57;;;;;;;4.67;1.30;;;;;;;2.51;100.00;148079.13;5023664;28;20102;-68
2022/04/08 05:04:22;;;;;;;4.73;1.20;;;;;;;2.56;100.00;148092.00;5022427;28;20083;-68
2022/04/08 05:06:48;;;;;;;7.03;1.30;;;;;;;2.61;100.00;148104.84;5021737;28;20521;-68
2022/04/08 05:09:13;;;;;;;6.40;1.37;;;;;;;2.59;100.00;148101.00;5019913;28;20025;-68
2022/04/08 05:11:39;;;;;;;13.00;1.73;;;;;;;2.56;100.00;148093.28;5002909;28;20037;-68
2022/04/08 05:14:04;;;;;;;6.30;1.70;;;;;;;2.68;100.00;148122.88;5019236;28;20036;-68
2022/04/08 05:16:30;;;;;;;7.17;1.70;;;;;;;2.76;100.00;148143.44;5022169;28;20485;-68
2022/04/08 05:18:55;;;;;;;4.00;1.57;;;;;;;2.95;100.00;148191.06;5016257;28;20075;-68
2022/04/08 05:21:21;;;;;;;4.33;1.70;;;;;;;3.22;100.00;148259.22;5027591;28;20114;-68
2022/04/08 05:23:47;;;;;;;5.47;1.57;;;;;;;3.27;100.00;148272.13;5026436;28;20104;-70
2022/04/08 05:26:13;;;;;;;7.60;1.90;;;;;;;3.15;100.00;148242.53;5026626;28;20025;-69
2022/04/08 05:28:38;;;;;;;4.73;1.50;;;;;;;3.11;100.00;148230.91;5025437;28;20500;-70
2022/04/08 05:31:04;;;;;;;7.93;1.70;;;;;;;3.03;100.00;148210.31;5020189;28;20036;-71
2022/04/08 05:33:29;;;;;;;12.67;2.20;;;;;;;2.99;100.00;148201.31;5022505;28;20030;-71
2022/04/08 05:35:54;;;;;;;8.60;1.70;;;;;;;3.21;100.00;148256.66;5022594;28;20511;-70
2022/04/08 05:38:20;;;;;;;7.23;1.83;;;;;;;3.41;100.00;148308.16;5026333;28;20481;-70
2022/04/08 05:40:45;;;;;;;4.50;1.40;;;;;;;3.32;100.00;148284.97;5017598;28;20030;-69
2022/04/08 05:43:10;;;;;;;5.87;1.70;;;;;;;3.27;100.00;148270.78;5016658;28;20090;-69
2022/04/08 05:45:36;;;;;;;5.03;1.87;;;;;;;3.20;100.00;148254.09;5023108;28;20075;-70
2022/04/08 05:48:03;;;;;;;7.10;2.13;;;;;;;3.20;100.00;148255.38;5021368;28;20025;-69
2022/04/08 05:50:29;;;;;;;9.23;2.57;;;;;;;3.42;100.00;148310.72;5024465;28;20112;-69
2022/04/08 05:52:54;;;;;;;4.10;1.40;;;;;;;3.64;100.00;148364.78;5016489;28;20439;-69
2022/04/08 05:55:19;;;;;;;9.07;1.50;;;;;;;3.59;100.00;148351.91;5015519;28;20029;-69
2022/04/08 05:57:46;;;;;;;6.00;1.27;;;;;;;3.59;100.00;148353.19;5022985;28;20040;-69
2022/04/08 06:00:13;;;;;;;4.70;1.10;;;;;;;3.32;100.00;148283.69;5021566;28;20029;-69
2022/04/08 06:02:40;;;;;;;4.57;1.30;;;;;;;3.18;100.00;148248.94;5023122;28;20121;-69
2022/04/08 06:05:07;;;;;;;4.70;1.80;;;;;;;3.15;100.00;148241.19;5027025;28;20033;-69
2022/04/08 06:07:32;;;;;;;5.37;1.60;;;;;;;3.16;100.00;148243.81;5031664;28;20379;-69
2022/04/08 06:10:02;;;;;;;4.37;1.30;;;;;;;3.96;100.00;148447.16;5017006;28;20057;-69
2022/04/08 06:12:28;;;;;;;4.27;1.10;;;;;;;4.26;100.00;148523.19;5023739;28;20042;-69
2022/04/08 06:14:54;;;;;;;5.00;1.40;;;;;;;4.66;100.00;148623.66;5021653;28;20041;-69
2022/04/08 06:17:19;;;;;;;5.90;1.13;;;;;;;4.91;100.00;148686.78;5024923;28;20475;-69
2022/04/08 06:19:46;;;;;;;5.63;1.40;;;;;;;5.18;100.00;148756.38;5026799;28;20041;-69
2022/04/08 06:22:12;;;;;;;2.40;0.80;;;;;;;5.04;100.00;148720.31;5019098;28;20064;-69
2022/04/08 06:24:39;;;;;;;5.37;1.00;;;;;;;4.11;100.00;148485.78;5021313;28;20041;-68
2022/04/08 06:27:04;;;;;;;5.00;1.20;;;;;;;4.89;100.00;148681.66;5024775;28;20468;-69
2022/04/08 06:29:30;;;;;;;5.53;1.40;;;;;;;5.36;100.00;148800.25;5023769;28;20116;-69
2022/04/08 06:31:55;;;;;;;9.43;1.60;;;;;;;5.72;100.00;148215.94;5022753;28;20025;-70
2022/04/08 06:34:21;;;;;;;4.53;1.07;;;;;;;5.72;100.00;141491.91;5025262;28;20033;-69
2022/04/08 06:36:46;;;;;;;3.17;1.07;;;;;;;5.81;100.00;135135.63;5025195;28;20037;-69
2022/04/08 06:39:12;;;;;;;10.03;1.87;;;;;;;5.77;100.00;132779.41;5002650;28;20037;-69
2022/04/08 06:41:37;;;;;;;4.70;1.30;;;;;;;5.45;100.00;129358.81;5026551;28;20563;-69
2022/04/08 06:44:03;;;;;;;5.93;1.30;;;;;;;5.55;100.00;129381.19;5021226;28;20030;-69
2022/04/08 06:46:28;;;;;;;7.27;1.33;;;;;;;5.72;100.00;128747.56;5018162;28;20052;-69
2022/04/08 06:48:56;;;;;;;5.73;1.57;;;;;;;6.12;100.00;126491.78;5015462;28;20033;-69
2022/04/08 06:51:22;;;;;;;5.90;1.30;;;;;;;5.29;100.00;126314.19;5020483;28;20035;-68
2022/04/08 06:53:47;;;;;;;8.33;1.50;;;;;;;5.09;100.00;129279.19;5014761;28;20714;-68
2022/04/08 06:56:13;;;;;;;11.53;2.00;;;;;;;4.82;100.00;133903.03;5022152;28;20315;-67
2022/04/08 06:58:39;;;;;;;9.90;1.70;;;;;;;5.69;100.00;136113.66;5020201;28;20548;-69
2022/04/08 07:01:06;;;;;;;5.53;1.30;;;;;;;6.18;100.00;127509.44;5021621;28;20429;-68
2022/04/08 07:03:31;;;;;;;6.80;1.00;;;;;;;6.37;100.00;118184.19;5024423;28;20124;-69
2022/04/08 07:05:57;;;;;;;8.10;1.70;;;;;;;6.37;100.00;113509.94;5018268;28;20025;-68
2022/04/08 07:08:22;;;;;;;4.80;1.20;;;;;;;5.89;100.00;102764.38;5023315;28;20485;-69
2022/04/08 07:10:47;;;;;;;5.17;1.30;;;;;;;6.42;100.00;102525.56;5023370;28;20040;-68
2022/04/08 07:13:13;;;;;;;5.80;1.40;;;;;;;6.56;100.00;91255.00;5027884;28;20405;-68
2022/04/08 07:15:38;;;;;;;6.37;1.53;;;;;;;6.51;100.00;80321.53;5026201;28;20029;-68
2022/04/08 07:18:04;;;;;;;4.97;1.50;;;;;;;6.69;100.00;78364.16;5025834;28;20040;-68
2022/04/08 07:20:30;;;;;;;5.17;2.03;;;;;;;7.11;100.00;71482.13;5027821;28;20140;-67
2022/04/08 07:23:01;;;;;;;3.83;1.50;;;;;;;6.87;100.00;56640.25;5021649;28;20477;-68
2022/04/08 07:25:26;;;;;;;5.15;1.85;;;;;;;6.06;100.00;61812.50;5015652;28;20033;-67
2022/04/08 07:27:55;;;;;;;4.70;1.20;;;;;;;5.60;100.00;82177.59;5028190;28;20091;-67
2022/04/08 07:30:22;;;;;;;5.17;1.40;;;;;;;5.82;100.00;93791.41;5020582;28;20112;-67
2022/04/08 07:32:52;;;;;;;4.70;1.60;;;;;;;6.39;100.00;91561.13;5025491;28;20091;-67
2022/04/08 07:35:18;;;;;;;6.57;1.97;;;;;;;7.67;100.00;75517.97;5029956;28;20164;-68
2022/04/08 07:37:43;;;;;;;6.93;1.60;;;;;;;8.19;100.00;25642.34;5027781;28;20029;-68
2022/04/08 07:40:12;;;;;;;4.40;1.20;;;;;;;6.80;100.00;-19344.50;5025337;28;20393;-69
2022/04/08 07:42:39;;;;;;;7.53;1.80;;;;;;;7.17;100.00;21688.78;5018840;28;20030;-68
2022/04/08 07:45:06;;;;;;;6.63;1.60;;;;;;;6.76;100.00;35676.56;5025262;28;20022;-68
2022/04/08 07:47:32;;;;;;;6.07;1.20;;;;;;;6.18;100.00;54604.19;5021343;28;20079;-68
2022/04/08 07:50:03;;;;;;;6.33;1.87;;;;;;;6.15;100.00;70705.47;5021704;28;20025;-67
2022/04/08 07:52:29;;;;;;;4.45;1.50;;;;;;;6.20;100.00;70052.84;5022063;28;20112;-68
2022/04/08 07:54:55;;;;;;;4.90;1.03;;;;;;;6.28;100.00;65124.56;5019761;28;20040;-68
2022/04/08 07:57:21;;;;;;;7.27;2.17;;;;;;;6.42;100.00;63824.69;5008166;28;20480;-67
2022/04/08 07:59:46;;;;;;;1.90;1.00;;;;;;;6.49;100.00;62515.88;5022459;28;20029;-68
2022/04/08 08:02:12;;;;;;;9.67;1.70;;;;;;;6.77;100.00;53347.72;5023390;28;20120;-68
2022/04/08 08:04:38;;;;;;;3.97;1.63;;;;;;;6.58;100.00;45140.44;5019625;28;20036;-68
2022/04/08 08:07:03;;;;;;;3.10;1.40;;;;;;;7.32;100.00;45526.72;5026772;28;20084;-68
2022/04/08 08:09:29;;;;;;;3.60;1.10;;;;;;;6.98;100.00;27538.34;5025766;28;20444;-68
2022/04/08 08:11:54;;;;;;;6.67;1.47;;;;;;;6.52;100.00;41211.56;5028557;28;20025;-67
2022/04/08 08:14:19;;;;;;;6.10;1.77;;;;;;;5.96;100.00;42477.28;5028083;28;20041;-68
2022/04/08 08:16:45;;;;;;;6.13;1.60;;;;;;;6.02;100.00;67068.28;5026840;28;20040;-67
2022/04/08 08:19:11;;;;;;;1.90;1.10;;;;;;;6.34;100.00;75345.75;5024270;28;20034;-67
2022/04/08 08:21:36;;;;;;;2.50;1.00;;;;;;;6.40;100.00;57250.63;5023146;28;20760;-68
2022/04/08 08:24:02;;;;;;;2.03;0.93;;;;;;;6.70;100.00;40244.47;5016114;28;20033;-68
2022/04/08 08:26:29;;;;;;;4.70;1.23;;;;;;;6.84;100.00;46470.66;5021506;28;20021;-68
2022/04/08 08:28:55;;;;;;;2.23;1.00;;;;;;;7.40;100.00;25279.06;5026230;28;20041;-68
2022/04/08 08:31:22;;;;;;;2.00;0.90;;;;;;;6.50;100.00;36964.81;5016667;28;21035;-68
2022/04/08 08:33:47;;;;;;;3.00;1.10;;;;;;;7.80;100.00;34435.47;5020650;28;20501;-68
2022/04/08 08:36:13;;;;;;;1.67;0.80;;;;;;;7.02;100.00;-10672.13;5025049;28;20041;-69
2022/04/08 08:38:38;;;;;;;3.40;1.00;;;;;;;7.87;100.00;-8747.19;5022207;28;20083;-69
2022/04/08 08:41:06;;;;;;;3.03;1.00;;;;;;;8.33;100.00;-12300.41;5027481;28;20498;-69
2022/04/08 08:43:32;;;;;;;2.10;0.70;;;;;;;7.02;100.00;-18053.75;5020670;28;20029;-68
2022/04/08 08:45:57;;;;;;;2.30;0.80;;;;;;;7.51;100.00;-19362.88;5026725;28;20365;-69
2022/04/08 08:48:23;;;;;;;4.40;1.07;;;;;;;7.66;100.00;-19366.69;5019139;28;20036;-69
2022/04/08 08:50:52;;;;;;;2.43;0.70;;;;;;;6.95;100.00;-19348.47;5019605;28;20029;-68
2022/04/08 08:53:19;;;;;;;6.00;1.07;;;;;;;7.53;100.00;-19363.53;5021214;28;20450;-68
2022/04/08 08:55:46;;;;;;;3.03;1.00;;;;;;;7.93;100.00;-19373.97;5023487;28;20412;-69
2022/04/08 08:58:12;;;;;;;2.37;0.90;;;;;;;7.13;100.00;-19353.09;5016187;28;20029;-69
2022/04/08 09:00:37;;;;;;;2.70;0.90;;;;;;;7.35;100.00;-19358.78;5020267;28;20037;-69
2022/04/08 09:03:04;;;;;;;2.20;1.20;;;;;;;7.73;100.00;-19368.53;5022962;28;20025;-68
2022/04/08 09:05:29;;;;;;;3.87;1.37;;;;;;;8.64;100.00;-19392.31;5021847;28;20068;-69
2022/04/08 09:08:00;;;;;;;2.87;0.97;;;;;;;8.50;100.00;-19388.75;5021797;28;20485;-69
2022/04/08 09:10:32;;;;;;;2.77;1.10;;;;;;;8.15;100.00;-19379.63;5024864;28;20417;-68
2022/04/08 09:13:00;;;;;;;2.83;0.90;;;;;;;8.46;100.00;-19387.56;5026201;28;20025;-69
2022/04/08 09:15:25;;;;;;;2.63;0.80;;;;;;;8.61;100.00;-19391.38;5018758;28;20036;-70
2022/04/08 09:17:53;;;;;;;4.07;1.20;;;;;;;8.81;100.00;-19396.78;5027220;28;20049;-69
2022/04/08 09:20:19;;;;;;;3.63;1.13;;;;;;;7.78;100.00;-19369.88;5025100;28;20029;-68
2022/04/08 09:22:55;;;;;;;4.53;1.50;;;;;;;8.37;100.00;-19385.19;5024040;28;20408;-69
2022/04/08 09:25:24;;;;;;;4.30;1.00;;;;;;;8.12;100.00;-19378.84;5004151;28;20056;-69
2022/04/08 09:27:50;;;;;;;3.90;1.40;;;;;;;8.87;100.00;-19398.25;5020211;28;20130;-69
2022/04/08 09:30:20;;;;;;;4.00;1.00;;;;;;;7.74;100.00;-19368.81;5015312;28;20053;-68
2022/04/08 09:32:45;;;;;;;6.40;1.67;;;;;;;8.79;100.00;-19396.25;5025009;28;20481;-69
2022/04/08 09:35:17;;;;;;;6.07;1.60;;;;;;;8.75;100.00;-19395.19;5023180;28;20071;-69
2022/04/08 09:37:43;;;;;;;4.60;1.40;;;;;;;8.70;100.00;-19393.88;5024465;28;20033;-70
2022/04/08 09:40:09;;;;;;;3.97;1.57;;;;;;;7.94;100.00;-19374.09;5021562;28;20043;-68
2022/04/08 09:42:45;;;;;;;4.23;1.60;;;;;;;8.27;100.00;-19382.53;5024674;28;20029;-68
2022/04/08 09:45:12;;;;;;;6.17;1.50;;;;;;;9.00;100.00;-19401.53;5016014;28;20582;-69
2022/04/08 09:47:38;;;;;;;7.30;1.47;;;;;;;10.38;100.00;-19437.38;5027635;28;20052;-69
2022/04/08 09:50:05;;;;;;;3.97;1.00;;;;;;;8.42;100.00;-19386.63;5020052;28;20033;-69
2022/04/08 09:52:31;;;;;;;6.00;1.60;;;;;;;7.67;100.00;-19367.09;5018087;28;20076;-67
2022/04/08 09:54:59;;;;;;;3.40;1.30;;;;;;;7.44;100.00;-19361.16;5014600;28;20042;-68
2022/04/08 09:57:25;;;;;;;3.37;1.00;;;;;;;7.78;100.00;-19369.88;5025152;28;20029;-68
2022/04/08 09:59:55;;;;;;;4.73;1.73;;;;;;;8.06;100.00;-19377.25;5017386;28;20748;-68
2022/04/08 10:02:24;;;;;;;5.97;1.50;;;;;;;8.39;100.00;-19385.72;5022606;28;20056;-68
2022/04/08 10:04:50;;;;;;;6.67;1.90;;;;;;;8.34;100.00;-19384.38;5019671;28;20037;-68
2022/04/08 10:07:16;;;;;;;3.17;1.20;;;;;;;8.15;100.00;-19379.63;5017249;28;20069;-68
2022/04/08 10:09:54;;;;;;;5.33;1.60;;;;;;;7.87;100.00;-19372.25;5008760;28;20042;-67
2022/04/08 10:12:31;;;;;;;7.97;1.93;;;;;;;7.96;100.00;-19374.63;5024651;28;20044;-67
2022/04/08 10:15:14;;;;;;;6.47;2.00;;;;;;;8.92;100.00;-19399.56;5023463;28;20160;-68
2022/04/08 10:17:40;;;;;;;7.70;2.20;;;;;;;7.71;100.00;-19368.16;5021210;28;20094;-68
2022/04/08 10:20:22;;;;;;;4.83;2.13;;;;;;;7.43;100.00;-19360.88;5019247;28;20068;-68
2022/04/08 10:22:48;;;;;;;6.20;1.77;;;;;;;7.72;100.00;-19368.28;5021711;28;20033;-67
2022/04/08 10:25:18;;;;;;;8.93;1.77;;;;;;;7.49;100.00;-19362.47;5021344;28;20163;-68
2022/04/08 10:27:44;;;;;;;3.53;1.70;;;;;;;8.49;100.00;-19388.34;5023124;28;20033;-67
2022/04/08 10:30:21;;;;;;;6.60;1.90;;;;;;;8.46;100.00;-19387.56;5022377;28;20383;-68
2022/04/08 10:32:47;;;;;;;4.93;1.87;;;;;;;8.15;100.00;-19379.63;5009131;28;20405;-68
2022/04/08 10:35:17;;;;;;;5.40;2.47;;;;;;;9.19;100.00;-19406.41;5024264;28;20042;-68
2022/04/08 10:37:42;;;;;;;8.20;2.30;;;;;;;8.15;100.00;-19379.63;5023482;28;20040;-68
2022/04/08 10:40:11;;;;;;;8.27;2.27;;;;;;;8.40;100.00;-19385.97;5012442;28;20029;-68
2022/04/08 10:42:36;;;;;;;6.70;2.17;;;;;;;8.80;100.00;-19396.53;5021991;28;20111;-67
2022/04/08 10:45:14;;;;;;;6.50;2.10;;;;;;;9.57;100.00;-19416.28;5018494;28;21012;-67
2022/04/08 10:47:50;;;;;;;8.80;2.27;;;;;;;9.81;100.00;-19422.63;5020337;28;20055;-68
2022/04/08 10:50:33;;;;;;;5.13;1.87;;;;;;;8.90;100.00;-19398.91;5021901;28;20397;-68
2022/04/08 10:53:08;;;;;;;6.33;2.10;;;;;;;8.37;100.00;-19385.19;5025910;28;20041;-67
2022/04/08 10:55:54;;;;;;;5.60;1.70;;;;;;;8.27;100.00;-19382.53;5026824;28;20066;-67
2022/04/08 10:58:49;;;;;;;3.77;1.73;;;;;;;8.41;100.00;-19386.22;5024080;28;20409;-67
2022/04/08 11:01:23;;;;;;;5.97;2.17;;;;;;;8.49;100.00;-19388.34;5010969;28;20045;-67
2022/04/08 11:04:06;;;;;;;4.70;1.80;;;;;;;8.20;100.00;-19380.81;5023069;28;20033;-67
2022/04/08 11:06:34;;;;;;;4.50;1.67;;;;;;;8.59;100.00;-19390.97;5007044;28;20048;-67
2022/04/08 11:09:08;;;;;;;7.00;2.40;;;;;;;8.87;100.00;-19398.09;5019840;28;20030;-67
2022/04/08 11:11:37;;;;;;;5.33;1.60;;;;;;;8.63;100.00;-19392.03;5028021;28;20083;-68
2022/04/08 11:14:04;;;;;;;9.73;1.97;;;;;;;9.05;100.00;-19402.97;5021399;28;20956;-68
2022/04/08 11:16:35;;;;;;;7.10;2.20;;;;;;;8.92;100.00;-19399.41;5022550;28;20034;-67
2022/04/08 11:19:07;;;;;;;6.90;2.20;;;;;;;9.08;100.00;-19403.63;5024384;28;20032;-67
2022/04/08 11:21:37;;;;;;;6.80;2.30;;;;;;;8.72;100.00;-19394.28;5025817;28;20306;-67
2022/04/08 11:24:07;;;;;;;6.83;2.07;;;;;;;8.89;100.00;-19398.75;5027411;28;20077;-67